createdAt,value
2018-06-28T00:00:20.270Z,0.00
2018-06-28T00:01:20.254Z,0.00
2018-06-28T00:02:20.264Z,0.00
2018-06-28T00:03:20.196Z,0.00
2018-06-28T00:04:20.213Z,0.00
2018-06-28T00:05:20.152Z,0.00
2018-06-28T00:06:20.135Z,0.00
2018-06-28T00:07:20.096Z,0.00
2018-06-28T00:08:20.109Z,0.00
2018-06-28T00:09:20.048Z,0.00
2018-06-28T00:10:20.065Z,0.00
2018-06-28T00:11:20.139Z,0.00
2018-06-28T00:12:19.986Z,0.00
2018-06-28T00:13:19.951Z,0.00
2018-06-28T00:14:19.925Z,0.00
2018-06-28T00:15:19.896Z,0.00
2018-06-28T00:16:19.913Z,0.00
2018-06-28T00:17:19.849Z,0.00
2018-06-28T00:18:19.897Z,0.00
2018-06-28T00:19:19.797Z,0.00
2018-06-28T00:20:19.769Z,0.00
2018-06-28T00:21:19.790Z,0.00
2018-06-28T00:22:19.766Z,0.00
2018-06-28T00:23:19.698Z,0.00
2018-06-28T00:24:19.680Z,0.00
2018-06-28T00:25:19.696Z,0.00
2018-06-28T00:26:19.626Z,0.00
2018-06-28T00:27:19.595Z,0.00
2018-06-28T00:28:19.573Z,0.00
2018-06-28T00:29:19.553Z,0.00
2018-06-28T00:30:19.566Z,0.00
2018-06-28T00:31:19.502Z,0.00
2018-06-28T00:32:19.478Z,0.00
2018-06-28T00:33:19.501Z,0.00
2018-06-28T00:34:19.426Z,0.00
2018-06-28T00:35:19.438Z,0.00
2018-06-28T00:36:19.378Z,0.00
2018-06-28T00:37:19.353Z,0.00
2018-06-28T00:38:19.390Z,0.00
2018-06-28T00:39:19.300Z,0.00
2018-06-28T00:40:19.272Z,0.00
2018-06-28T00:41:19.283Z,0.00
2018-06-28T00:42:19.222Z,0.00
2018-06-28T00:43:19.238Z,0.00
2018-06-28T00:44:19.176Z,0.00
2018-06-28T00:45:19.146Z,0.00
2018-06-28T00:46:19.169Z,0.00
2018-06-28T00:47:19.101Z,0.00
2018-06-28T00:48:19.076Z,0.00
2018-06-28T00:49:19.046Z,0.00
2018-06-28T00:50:19.068Z,0.00
2018-06-28T00:51:19.068Z,0.00
2018-06-28T00:52:18.971Z,0.00
2018-06-28T00:53:19.384Z,0.00
2018-06-28T00:54:18.919Z,0.00
2018-06-28T00:55:18.948Z,0.00
2018-06-28T00:56:18.930Z,0.00
2018-06-28T00:57:18.844Z,0.00
2018-06-28T00:58:18.821Z,0.00
2018-06-28T00:59:18.792Z,0.00
2018-06-28T01:00:18.771Z,0.00
2018-06-28T01:01:18.785Z,0.00
2018-06-28T01:02:18.717Z,0.00
2018-06-28T01:03:18.692Z,0.00
2018-06-28T01:04:18.669Z,0.00
2018-06-28T01:05:18.643Z,0.00
2018-06-28T01:06:18.663Z,0.00
2018-06-28T01:07:18.591Z,0.00
2018-06-28T01:08:18.604Z,0.00
2018-06-28T01:09:18.542Z,0.00
2018-06-28T01:10:18.514Z,0.00
2018-06-28T01:11:18.486Z,0.00
2018-06-28T01:12:18.461Z,0.00
2018-06-28T01:13:18.480Z,0.00
2018-06-28T01:14:18.412Z,0.00
2018-06-28T01:15:18.390Z,0.00
2018-06-28T01:16:18.362Z,0.00
2018-06-28T01:17:18.332Z,0.00
2018-06-28T01:18:18.355Z,0.00
2018-06-28T01:19:18.326Z,0.00
2018-06-28T01:20:18.300Z,0.00
2018-06-28T01:21:18.237Z,0.00
2018-06-28T01:22:18.214Z,0.00
2018-06-28T01:23:18.185Z,0.00
2018-06-28T01:24:18.263Z,0.00
2018-06-28T01:25:18.144Z,0.00
2018-06-28T01:26:18.106Z,0.00
2018-06-28T01:27:18.081Z,0.00
2018-06-28T01:28:18.058Z,0.00
2018-06-28T01:29:18.398Z,0.00
2018-06-28T01:30:18.058Z,0.00
2018-06-28T01:31:17.989Z,0.00
2018-06-28T01:32:17.951Z,0.00
2018-06-28T01:33:17.966Z,0.00
2018-06-28T01:34:17.906Z,0.00
2018-06-28T01:35:17.924Z,0.00
2018-06-28T01:36:17.849Z,0.00
2018-06-28T01:37:17.830Z,0.00
2018-06-28T01:38:17.801Z,0.00
2018-06-28T01:39:17.775Z,0.00
2018-06-28T01:40:17.788Z,0.00
2018-06-28T01:41:17.718Z,0.00
2018-06-28T01:42:17.701Z,0.00
2018-06-28T01:43:17.669Z,0.00
2018-06-28T01:44:17.694Z,0.00
2018-06-28T01:45:17.685Z,0.00
2018-06-28T01:46:17.593Z,0.00
2018-06-28T01:47:17.567Z,0.00
2018-06-28T01:48:17.572Z,0.00
2018-06-28T01:49:17.515Z,0.00
2018-06-28T01:50:17.532Z,0.00
2018-06-28T01:51:17.509Z,0.00
2018-06-28T01:52:17.436Z,0.00
2018-06-28T01:53:17.417Z,0.00
2018-06-28T01:54:17.387Z,0.00
2018-06-28T01:55:17.358Z,0.00
2018-06-28T01:56:17.379Z,4.00
2018-06-28T01:57:17.305Z,4.00
2018-06-28T01:58:17.282Z,4.00
2018-06-28T01:59:17.260Z,4.00
2018-06-28T02:00:17.233Z,0.00
2018-06-28T02:01:17.250Z,0.00
2018-06-28T02:02:17.182Z,4.00
2018-06-28T02:03:17.155Z,4.00
2018-06-28T02:04:17.124Z,4.00
2018-06-28T02:05:17.099Z,4.00
2018-06-28T02:06:17.140Z,4.00
2018-06-28T02:07:17.047Z,8.00
2018-06-28T02:08:17.021Z,4.00
2018-06-28T02:09:17.850Z,8.00
2018-06-28T02:10:16.972Z,8.00
2018-06-28T02:11:17.002Z,8.00
2018-06-28T02:12:16.972Z,8.00
2018-06-28T02:13:16.890Z,12.00
2018-06-28T02:14:16.871Z,12.00
2018-06-28T02:15:16.858Z,12.00
2018-06-28T02:16:16.813Z,12.00
2018-06-28T02:17:16.832Z,16.00
2018-06-28T02:18:17.352Z,20.00
2018-06-28T02:19:16.740Z,20.00
2018-06-28T02:20:17.358Z,20.00
2018-06-28T02:21:16.682Z,24.00
2018-06-28T02:22:16.697Z,28.00
2018-06-28T02:23:17.372Z,32.00
2018-06-28T02:24:16.651Z,36.00
2018-06-28T02:25:17.367Z,40.00
2018-06-28T02:26:16.558Z,44.00
2018-06-28T02:27:16.528Z,48.00
2018-06-28T02:28:17.353Z,52.00
2018-06-28T02:29:16.522Z,56.00
2018-06-28T02:30:16.449Z,60.00
2018-06-28T02:31:19.356Z,72.00
2018-06-28T02:32:16.395Z,76.00
2018-06-28T02:33:16.420Z,84.00
2018-06-28T02:34:16.397Z,92.00
2018-06-28T02:35:16.317Z,100.00
2018-06-28T02:36:16.295Z,108.00
2018-06-28T02:37:16.855Z,120.00
2018-06-28T02:38:16.335Z,128.00
2018-06-28T02:39:16.213Z,140.00
2018-06-28T02:40:16.186Z,152.00
2018-06-28T02:41:16.854Z,164.00
2018-06-28T02:42:16.136Z,180.00
2018-06-28T02:43:16.167Z,192.00
2018-06-28T02:44:16.091Z,208.00
2018-06-28T02:45:16.067Z,224.00
2018-06-28T02:46:16.032Z,236.00
2018-06-28T02:47:16.005Z,252.00
2018-06-28T02:48:16.036Z,272.00
2018-06-28T02:49:16.410Z,288.00
2018-06-28T02:50:15.925Z,304.00
2018-06-28T02:51:15.896Z,324.00
2018-06-28T02:52:16.862Z,344.00
2018-06-28T02:53:15.854Z,368.00
2018-06-28T02:54:15.859Z,388.00
2018-06-28T02:55:16.365Z,408.00
2018-06-28T02:56:15.770Z,432.00
2018-06-28T02:57:15.742Z,456.00
2018-06-28T02:58:16.364Z,480.00
2018-06-28T02:59:15.736Z,504.00
2018-06-28T03:00:15.706Z,532.00
2018-06-28T03:01:16.357Z,560.00
2018-06-28T03:02:15.611Z,588.00
2018-06-28T03:03:15.581Z,620.00
2018-06-28T03:04:15.556Z,656.00
2018-06-28T03:05:15.928Z,688.00
2018-06-28T03:06:15.506Z,732.00
2018-06-28T03:07:16.382Z,776.00
2018-06-28T03:08:15.452Z,824.00
2018-06-28T03:09:16.365Z,876.00
2018-06-28T03:10:15.438Z,924.00
2018-06-28T03:11:15.430Z,968.00
2018-06-28T03:12:15.348Z,1016.00
2018-06-28T03:13:15.862Z,1064.00
2018-06-28T03:14:15.293Z,1124.00
2018-06-28T03:15:15.268Z,1180.00
2018-06-28T03:16:15.417Z,1236.00
2018-06-28T03:17:15.213Z,1304.00
2018-06-28T03:18:15.189Z,1372.00
2018-06-28T03:19:15.165Z,1444.00
2018-06-28T03:20:15.873Z,1520.00
2018-06-28T03:21:15.150Z,1596.00
2018-06-28T03:22:15.081Z,1672.00
2018-06-28T03:23:15.096Z,1740.00
2018-06-28T03:24:15.027Z,1808.00
2018-06-28T03:25:15.771Z,1868.00
2018-06-28T03:26:15.027Z,1928.00
2018-06-28T03:27:14.946Z,1988.00
2018-06-28T03:28:16.481Z,2048.00
2018-06-28T03:29:14.892Z,2112.00
2018-06-28T03:30:14.912Z,2164.00
2018-06-28T03:31:14.843Z,2220.00
2018-06-28T03:32:15.368Z,2276.00
2018-06-28T03:33:14.830Z,2340.00
2018-06-28T03:34:14.763Z,2396.00
2018-06-28T03:35:14.740Z,2460.00
2018-06-28T03:36:14.712Z,2520.00
2018-06-28T03:37:14.682Z,2596.00
2018-06-28T03:38:14.702Z,2664.00
2018-06-28T03:39:14.630Z,2712.00
2018-06-28T03:40:14.605Z,2784.00
2018-06-28T03:41:14.580Z,2872.00
2018-06-28T03:42:14.554Z,2932.00
2018-06-28T03:43:14.571Z,2976.00
2018-06-28T03:44:14.499Z,2972.00
2018-06-28T03:45:14.517Z,2916.00
2018-06-28T03:46:14.449Z,2856.00
2018-06-28T03:47:14.421Z,2920.00
2018-06-28T03:48:14.435Z,3092.00
2018-06-28T03:49:14.868Z,3240.00
2018-06-28T03:50:14.386Z,3324.00
2018-06-28T03:51:14.317Z,3392.00
2018-06-28T03:52:14.295Z,3452.00
2018-06-28T03:53:14.265Z,3500.00
2018-06-28T03:54:14.236Z,3560.00
2018-06-28T03:55:14.427Z,3604.00
2018-06-28T03:56:14.185Z,3644.00
2018-06-28T03:57:14.165Z,3680.00
2018-06-28T03:58:14.898Z,3732.00
2018-06-28T03:59:14.103Z,3772.00
2018-06-28T04:00:14.119Z,3816.00
2018-06-28T04:01:14.059Z,3828.00
2018-06-28T04:02:14.879Z,3816.00
2018-06-28T04:03:14.159Z,3820.00
2018-06-28T04:04:13.974Z,3840.00
2018-06-28T04:05:13.949Z,3888.00
2018-06-28T04:06:13.924Z,4036.00
2018-06-28T04:07:14.870Z,4140.00
2018-06-28T04:08:13.934Z,4216.00
2018-06-28T04:09:13.862Z,4316.00
2018-06-28T04:10:13.819Z,4412.00
2018-06-28T04:11:14.372Z,4768.00
2018-06-28T04:12:13.768Z,5168.00
2018-06-28T04:13:13.793Z,4852.00
2018-06-28T04:14:13.716Z,4508.00
2018-06-28T04:15:14.399Z,4548.00
2018-06-28T04:16:13.671Z,4592.00
2018-06-28T04:17:13.635Z,4656.00
2018-06-28T04:18:13.931Z,4700.00
2018-06-28T04:19:13.585Z,4756.00
2018-06-28T04:20:13.558Z,4816.00
2018-06-28T04:21:13.578Z,4944.00
2018-06-28T04:22:13.506Z,5288.00
2018-06-28T04:23:14.377Z,5340.00
2018-06-28T04:24:13.460Z,5132.00
2018-06-28T04:25:13.436Z,4968.00
2018-06-28T04:26:13.924Z,5000.00
2018-06-28T04:27:13.378Z,5056.00
2018-06-28T04:28:13.356Z,5112.00
2018-06-28T04:29:13.874Z,5292.00
2018-06-28T04:30:13.344Z,5288.00
2018-06-28T04:31:13.878Z,5192.00
2018-06-28T04:32:13.250Z,4688.00
2018-06-28T04:33:13.245Z,4452.00
2018-06-28T04:34:13.877Z,4456.00
2018-06-28T04:35:13.241Z,4512.00
2018-06-28T04:36:13.156Z,4520.00
2018-06-28T04:37:13.440Z,4620.00
2018-06-28T04:38:13.109Z,4740.00
2018-06-28T04:39:13.073Z,4832.00
2018-06-28T04:40:13.046Z,4944.00
2018-06-28T04:41:13.886Z,5056.00
2018-06-28T04:42:13.051Z,5192.00
2018-06-28T04:43:12.968Z,5328.00
2018-06-28T04:44:13.882Z,5308.00
2018-06-28T04:45:12.926Z,5392.00
2018-06-28T04:46:12.892Z,5388.00
2018-06-28T04:47:12.931Z,5428.00
2018-06-28T04:48:12.845Z,5468.00
2018-06-28T04:49:12.819Z,5532.00
2018-06-28T04:50:12.790Z,5608.00
2018-06-28T04:51:12.948Z,5748.00
2018-06-28T04:52:12.740Z,5816.00
2018-06-28T04:53:12.715Z,6064.00
2018-06-28T04:54:12.690Z,6360.00
2018-06-28T04:55:12.666Z,6568.00
2018-06-28T04:56:12.914Z,6876.00
2018-06-28T04:57:12.611Z,7116.00
2018-06-28T04:58:12.589Z,7496.00
2018-06-28T04:59:12.599Z,8076.00
2018-06-28T05:00:12.558Z,9048.00
2018-06-28T05:01:13.396Z,10496.00
2018-06-28T05:02:12.541Z,13864.00
2018-06-28T05:03:12.471Z,20960.00
2018-06-28T05:04:12.439Z,25856.00
2018-06-28T05:05:13.383Z,27872.00
2018-06-28T05:06:12.394Z,22048.00
2018-06-28T05:07:12.421Z,25760.00
2018-06-28T05:08:12.341Z,23936.00
2018-06-28T05:09:12.882Z,21568.00
2018-06-28T05:10:12.298Z,19776.00
2018-06-28T05:11:13.296Z,19456.00
2018-06-28T05:12:12.286Z,23552.00
2018-06-28T05:13:12.221Z,26432.00
2018-06-28T05:14:12.884Z,28096.00
2018-06-28T05:15:12.175Z,27776.00
2018-06-28T05:16:12.441Z,23840.00
2018-06-28T05:17:12.192Z,20096.00
2018-06-28T05:18:12.144Z,15712.00
2018-06-28T05:19:12.089Z,12280.00
2018-06-28T05:20:12.060Z,9024.00
2018-06-28T05:21:12.044Z,8588.00
2018-06-28T05:22:12.059Z,8100.00
2018-06-28T05:23:11.996Z,8032.00
2018-06-28T05:24:12.890Z,8188.00
2018-06-28T05:25:11.962Z,7928.00
2018-06-28T05:26:11.933Z,7884.00
2018-06-28T05:27:12.049Z,8104.00
2018-06-28T05:28:11.885Z,8224.00
2018-06-28T05:29:11.902Z,8496.00
2018-06-28T05:30:11.841Z,9332.00
2018-06-28T05:31:11.814Z,10264.00
2018-06-28T05:32:11.854Z,10308.00
2018-06-28T05:33:11.785Z,9916.00
2018-06-28T05:34:11.747Z,10056.00
2018-06-28T05:35:11.794Z,9768.00
2018-06-28T05:36:11.698Z,9216.00
2018-06-28T05:37:11.945Z,8860.00
2018-06-28T05:38:11.701Z,8720.00
2018-06-28T05:39:11.648Z,8508.00
2018-06-28T05:40:11.609Z,8456.00
2018-06-28T05:41:11.584Z,8316.00
2018-06-28T05:42:11.564Z,8376.00
2018-06-28T05:43:11.596Z,8392.00
2018-06-28T05:44:11.511Z,8396.00
2018-06-28T05:45:11.499Z,8412.00
2018-06-28T05:46:11.468Z,8412.00
2018-06-28T05:47:12.509Z,8584.00
2018-06-28T05:48:11.466Z,8856.00
2018-06-28T05:49:11.402Z,9168.00
2018-06-28T05:50:11.378Z,9400.00
2018-06-28T05:51:11.352Z,9612.00
2018-06-28T05:52:11.896Z,9712.00
2018-06-28T05:53:11.340Z,9760.00
2018-06-28T05:54:11.390Z,9768.00
2018-06-28T05:55:11.257Z,9704.00
2018-06-28T05:56:11.232Z,9636.00
2018-06-28T05:57:11.214Z,9544.00
2018-06-28T05:58:11.190Z,9400.00
2018-06-28T05:59:11.255Z,9204.00
2018-06-28T06:00:11.150Z,9000.00
2018-06-28T06:01:11.117Z,8792.00
2018-06-28T06:02:11.910Z,8680.00
2018-06-28T06:03:11.079Z,8648.00
2018-06-28T06:04:11.097Z,8616.00
2018-06-28T06:05:11.031Z,8612.00
2018-06-28T06:06:10.998Z,8524.00
2018-06-28T06:07:11.902Z,8240.00
2018-06-28T06:08:10.950Z,8140.00
2018-06-28T06:09:10.971Z,8052.00
2018-06-28T06:10:10.953Z,8068.00
2018-06-28T06:11:10.881Z,8108.00
2018-06-28T06:12:11.466Z,8176.00
2018-06-28T06:13:10.835Z,8324.00
2018-06-28T06:14:10.858Z,8468.00
2018-06-28T06:15:10.787Z,8600.00
2018-06-28T06:16:10.765Z,8768.00
2018-06-28T06:17:10.746Z,8848.00
2018-06-28T06:18:10.724Z,8868.00
2018-06-28T06:19:10.739Z,8844.00
2018-06-28T06:20:10.751Z,8856.00
2018-06-28T06:21:10.649Z,8888.00
2018-06-28T06:22:10.629Z,8924.00
2018-06-28T06:23:11.409Z,8924.00
2018-06-28T06:24:10.586Z,8888.00
2018-06-28T06:25:10.599Z,8868.00
2018-06-28T06:26:10.535Z,8816.00
2018-06-28T06:27:10.512Z,8756.00
2018-06-28T06:28:10.672Z,8692.00
2018-06-28T06:29:10.472Z,8620.00
2018-06-28T06:30:10.489Z,8536.00
2018-06-28T06:31:10.421Z,8404.00
2018-06-28T06:32:10.395Z,8272.00
2018-06-28T06:33:10.378Z,8192.00
2018-06-28T06:34:10.353Z,8132.00
2018-06-28T06:35:10.365Z,8092.00
2018-06-28T06:36:10.307Z,8056.00
2018-06-28T06:37:10.336Z,8012.00
2018-06-28T06:38:10.371Z,7928.00
2018-06-28T06:39:10.238Z,7876.00
2018-06-28T06:40:10.213Z,7856.00
2018-06-28T06:41:10.234Z,7848.00
2018-06-28T06:42:10.168Z,7820.00
2018-06-28T06:43:10.906Z,7768.00
2018-06-28T06:44:10.126Z,7700.00
2018-06-28T06:45:10.106Z,7624.00
2018-06-28T06:46:10.119Z,7556.00
2018-06-28T06:47:10.058Z,7512.00
2018-06-28T06:48:10.461Z,7444.00
2018-06-28T06:49:10.019Z,7344.00
2018-06-28T06:50:09.988Z,7276.00
2018-06-28T06:51:10.022Z,7172.00
2018-06-28T06:52:09.945Z,7076.00
2018-06-28T06:53:09.919Z,6948.00
2018-06-28T06:54:09.945Z,6928.00
2018-06-28T06:55:09.876Z,6892.00
2018-06-28T06:56:09.852Z,6860.00
2018-06-28T06:57:09.828Z,6820.00
2018-06-28T06:58:09.811Z,6824.00
2018-06-28T06:59:09.824Z,6756.00
2018-06-28T07:00:09.951Z,6724.00
2018-06-28T07:01:09.784Z,6680.00
2018-06-28T07:02:10.411Z,6656.00
2018-06-28T07:03:09.694Z,6664.00
2018-06-28T07:04:09.673Z,6688.00
2018-06-28T07:05:09.649Z,6704.00
2018-06-28T07:06:09.967Z,6656.00
2018-06-28T07:07:09.647Z,6684.00
2018-06-28T07:08:09.594Z,6672.00
2018-06-28T07:09:09.574Z,6732.00
2018-06-28T07:10:09.627Z,6796.00
2018-06-28T07:11:09.521Z,6876.00
2018-06-28T07:12:09.560Z,6940.00
2018-06-28T07:13:09.471Z,6996.00
2018-06-28T07:14:09.447Z,7056.00
2018-06-28T07:15:09.425Z,7076.00
2018-06-28T07:16:09.455Z,7104.00
2018-06-28T07:17:09.386Z,7084.00
2018-06-28T07:18:09.360Z,7076.00
2018-06-28T07:19:09.919Z,7072.00
2018-06-28T07:20:09.332Z,7036.00
2018-06-28T07:21:09.335Z,7036.00
2018-06-28T07:22:09.305Z,7004.00
2018-06-28T07:23:09.266Z,6944.00
2018-06-28T07:24:09.226Z,6928.00
2018-06-28T07:25:09.998Z,6940.00
2018-06-28T07:26:09.240Z,6984.00
2018-06-28T07:27:09.157Z,6984.00
2018-06-28T07:28:09.185Z,6896.00
2018-06-28T07:29:09.118Z,6724.00
2018-06-28T07:30:09.922Z,6700.00
2018-06-28T07:31:09.072Z,6736.00
2018-06-28T07:32:09.110Z,6664.00
2018-06-28T07:33:09.054Z,6500.00
2018-06-28T07:34:09.036Z,6360.00
2018-06-28T07:35:09.933Z,6436.00
2018-06-28T07:36:08.968Z,6524.00
2018-06-28T07:37:09.001Z,6580.00
2018-06-28T07:38:08.925Z,6704.00
2018-06-28T07:39:08.930Z,6808.00
2018-06-28T07:40:08.886Z,6860.00
2018-06-28T07:41:08.875Z,6896.00
2018-06-28T07:42:08.906Z,6904.00
2018-06-28T07:43:08.822Z,6920.00
2018-06-28T07:44:08.793Z,6956.00
2018-06-28T07:45:08.771Z,6988.00
2018-06-28T07:46:08.750Z,7020.00
2018-06-28T07:47:08.772Z,7012.00
2018-06-28T07:48:08.759Z,7088.00
2018-06-28T07:49:08.754Z,7140.00
2018-06-28T07:50:08.662Z,7200.00
2018-06-28T07:51:08.644Z,7276.00
2018-06-28T07:52:08.629Z,7352.00
2018-06-28T07:53:08.653Z,7384.00
2018-06-28T07:54:08.592Z,7408.00
2018-06-28T07:55:08.600Z,7416.00
2018-06-28T07:56:08.539Z,7432.00
2018-06-28T07:57:08.513Z,7420.00
2018-06-28T07:58:08.495Z,7440.00
2018-06-28T07:59:08.533Z,7512.00
2018-06-28T08:00:08.454Z,7552.00
2018-06-28T08:01:08.431Z,7564.00
2018-06-28T08:02:08.407Z,7536.00
2018-06-28T08:03:08.389Z,7496.00
2018-06-28T08:04:08.435Z,7480.00
2018-06-28T08:05:08.345Z,7432.00
2018-06-28T08:06:08.325Z,7384.00
2018-06-28T08:07:08.303Z,7332.00
2018-06-28T08:08:08.287Z,7256.00
2018-06-28T08:09:08.321Z,7180.00
2018-06-28T08:10:08.244Z,7108.00
2018-06-28T08:11:08.219Z,7052.00
2018-06-28T08:12:08.198Z,6992.00
2018-06-28T08:13:08.182Z,6944.00
2018-06-28T08:14:08.200Z,6884.00
2018-06-28T08:15:08.932Z,6836.00
2018-06-28T08:16:08.161Z,6812.00
2018-06-28T08:17:08.097Z,6792.00
2018-06-28T08:18:08.085Z,6756.00
2018-06-28T08:19:08.052Z,6736.00
2018-06-28T08:20:08.051Z,6720.00
2018-06-28T08:21:08.058Z,6708.00
2018-06-28T08:22:07.996Z,6704.00
2018-06-28T08:23:07.971Z,6696.00
2018-06-28T08:24:07.960Z,6692.00
2018-06-28T08:25:07.931Z,6704.00
2018-06-28T08:26:07.956Z,6740.00
2018-06-28T08:27:07.946Z,6692.00
2018-06-28T08:28:07.875Z,6664.00
2018-06-28T08:29:07.850Z,6720.00
2018-06-28T08:30:07.835Z,6748.00
2018-06-28T08:31:07.864Z,6772.00
2018-06-28T08:32:08.464Z,6804.00
2018-06-28T08:33:07.770Z,6788.00
2018-06-28T08:34:07.747Z,6916.00
2018-06-28T08:35:07.791Z,6960.00
2018-06-28T08:36:07.809Z,6984.00
2018-06-28T08:37:07.986Z,6952.00
2018-06-28T08:38:07.665Z,6876.00
2018-06-28T08:39:07.655Z,6820.00
2018-06-28T08:40:07.621Z,6820.00
2018-06-28T08:41:07.601Z,6892.00
2018-06-28T08:42:08.020Z,6952.00
2018-06-28T08:43:07.568Z,7020.00
2018-06-28T08:44:07.550Z,7032.00
2018-06-28T08:45:07.529Z,7092.00
2018-06-28T08:46:08.443Z,7152.00
2018-06-28T08:47:08.006Z,7204.00
2018-06-28T08:48:07.459Z,7328.00
2018-06-28T08:49:07.505Z,7556.00
2018-06-28T08:50:07.422Z,7752.00
2018-06-28T08:51:07.399Z,7912.00
2018-06-28T08:52:07.507Z,8100.00
2018-06-28T08:53:07.446Z,8272.00
2018-06-28T08:54:07.340Z,8408.00
2018-06-28T08:55:07.320Z,8472.00
2018-06-28T08:56:07.308Z,8516.00
2018-06-28T08:57:07.519Z,8616.00
2018-06-28T08:58:07.333Z,8712.00
2018-06-28T08:59:07.288Z,8824.00
2018-06-28T09:00:07.233Z,8868.00
2018-06-28T09:01:07.237Z,8896.00
2018-06-28T09:02:07.983Z,8972.00
2018-06-28T09:03:07.161Z,9080.00
2018-06-28T09:04:07.183Z,9144.00
2018-06-28T09:05:07.119Z,9236.00
2018-06-28T09:06:07.114Z,9340.00
2018-06-28T09:07:07.127Z,9412.00
2018-06-28T09:08:07.142Z,9480.00
2018-06-28T09:09:07.128Z,9540.00
2018-06-28T09:10:07.019Z,9560.00
2018-06-28T09:11:07.007Z,9640.00
2018-06-28T09:12:07.032Z,9724.00
2018-06-28T09:13:06.968Z,9936.00
2018-06-28T09:14:06.984Z,10148.00
2018-06-28T09:15:06.922Z,10320.00
2018-06-28T09:16:06.903Z,10340.00
2018-06-28T09:17:06.946Z,10320.00
2018-06-28T09:18:06.883Z,10184.00
2018-06-28T09:19:06.845Z,10032.00
2018-06-28T09:20:06.827Z,10064.00
2018-06-28T09:21:06.817Z,10044.00
2018-06-28T09:22:06.830Z,10164.00
2018-06-28T09:23:06.842Z,10364.00
2018-06-28T09:24:06.790Z,10508.00
2018-06-28T09:25:06.730Z,10684.00
2018-06-28T09:26:06.708Z,10992.00
2018-06-28T09:27:06.690Z,11268.00
2018-06-28T09:28:06.672Z,11708.00
2018-06-28T09:29:06.707Z,11996.00
2018-06-28T09:30:06.637Z,12780.00
2018-06-28T09:31:06.616Z,12560.00
2018-06-28T09:32:06.596Z,12072.00
2018-06-28T09:33:06.581Z,12952.00
2018-06-28T09:34:06.609Z,14012.00
2018-06-28T09:35:06.540Z,14140.00
2018-06-28T09:36:06.516Z,13648.00
2018-06-28T09:37:06.504Z,13028.00
2018-06-28T09:38:06.480Z,12880.00
2018-06-28T09:39:06.508Z,12700.00
2018-06-28T09:40:06.501Z,12568.00
2018-06-28T09:41:06.427Z,12636.00
2018-06-28T09:42:06.405Z,12868.00
2018-06-28T09:43:06.394Z,12448.00
2018-06-28T09:44:06.378Z,12752.00
2018-06-28T09:45:06.398Z,13116.00
2018-06-28T09:46:06.332Z,13640.00
2018-06-28T09:47:06.962Z,14596.00
2018-06-28T09:48:06.293Z,15288.00
2018-06-28T09:49:06.277Z,15344.00
2018-06-28T09:50:06.323Z,15188.00
2018-06-28T09:51:06.241Z,15840.00
2018-06-28T09:52:06.990Z,15960.00
2018-06-28T09:53:06.205Z,15892.00
2018-06-28T09:54:06.209Z,15112.00
2018-06-28T09:55:06.211Z,14500.00
2018-06-28T09:56:06.962Z,13864.00
2018-06-28T09:57:06.209Z,13204.00
2018-06-28T09:58:06.132Z,12856.00
2018-06-28T09:59:06.096Z,13736.00
2018-06-28T10:00:06.078Z,14292.00
2018-06-28T10:01:06.103Z,14304.00
2018-06-28T10:02:06.039Z,13672.00
2018-06-28T10:03:06.071Z,13588.00
2018-06-28T10:04:06.011Z,13260.00
2018-06-28T10:05:05.984Z,13044.00
2018-06-28T10:06:05.978Z,12848.00
2018-06-28T10:07:05.993Z,12608.00
2018-06-28T10:08:05.931Z,12624.00
2018-06-28T10:09:05.917Z,12676.00
2018-06-28T10:10:05.898Z,12920.00
2018-06-28T10:11:05.875Z,12932.00
2018-06-28T10:12:05.914Z,12712.00
2018-06-28T10:13:05.841Z,12868.00
2018-06-28T10:14:05.879Z,13664.00
2018-06-28T10:15:05.807Z,14312.00
2018-06-28T10:16:06.467Z,14948.00
2018-06-28T10:17:05.773Z,15636.00
2018-06-28T10:18:05.817Z,16324.00
2018-06-28T10:19:05.777Z,16180.00
2018-06-28T10:20:05.811Z,15852.00
2018-06-28T10:21:06.474Z,15440.00
2018-06-28T10:22:05.681Z,15828.00
2018-06-28T10:23:05.681Z,15784.00
2018-06-28T10:24:05.693Z,15288.00
2018-06-28T10:25:05.642Z,15188.00
2018-06-28T10:26:05.608Z,15000.00
2018-06-28T10:27:05.591Z,15104.00
2018-06-28T10:28:05.572Z,15480.00
2018-06-28T10:29:05.601Z,15724.00
2018-06-28T10:30:05.541Z,15936.00
2018-06-28T10:31:05.544Z,15896.00
2018-06-28T10:32:05.504Z,15980.00
2018-06-28T10:33:06.381Z,16136.00
2018-06-28T10:34:05.523Z,16176.00
2018-06-28T10:35:05.453Z,16112.00
2018-06-28T10:36:05.435Z,16140.00
2018-06-28T10:37:05.420Z,16220.00
2018-06-28T10:38:05.396Z,16552.00
2018-06-28T10:39:05.425Z,16800.00
2018-06-28T10:40:05.363Z,16832.00
2018-06-28T10:41:05.349Z,17088.00
2018-06-28T10:42:05.327Z,18112.00
2018-06-28T10:43:05.353Z,17824.00
2018-06-28T10:44:05.291Z,17088.00
2018-06-28T10:45:05.320Z,16584.00
2018-06-28T10:46:05.262Z,16236.00
2018-06-28T10:47:05.241Z,16336.00
2018-06-28T10:48:05.276Z,16520.00
2018-06-28T10:49:05.205Z,16512.00
2018-06-28T10:50:05.189Z,16336.00
2018-06-28T10:51:05.227Z,15588.00
2018-06-28T10:52:05.154Z,15296.00
2018-06-28T10:53:05.137Z,15616.00
2018-06-28T10:54:05.174Z,15692.00
2018-06-28T10:55:05.102Z,15624.00
2018-06-28T10:56:05.134Z,15316.00
2018-06-28T10:57:05.075Z,14752.00
2018-06-28T10:58:05.051Z,14708.00
2018-06-28T10:59:05.033Z,15124.00
2018-06-28T11:00:05.019Z,15152.00
2018-06-28T11:01:05.050Z,15144.00
2018-06-28T11:02:04.980Z,16048.00
2018-06-28T11:03:04.967Z,17120.00
2018-06-28T11:04:04.949Z,17984.00
2018-06-28T11:05:04.984Z,18592.00
2018-06-28T11:06:04.917Z,18720.00
2018-06-28T11:07:04.895Z,18240.00
2018-06-28T11:08:04.878Z,18240.00
2018-06-28T11:09:04.869Z,18592.00
2018-06-28T11:10:05.033Z,17984.00
2018-06-28T11:11:04.873Z,17504.00
2018-06-28T11:12:04.888Z,17760.00
2018-06-28T11:13:04.791Z,18176.00
2018-06-28T11:14:04.819Z,18496.00
2018-06-28T11:15:04.762Z,18368.00
2018-06-28T11:16:04.740Z,17664.00
2018-06-28T11:17:04.722Z,16544.00
2018-06-28T11:18:04.709Z,14900.00
2018-06-28T11:19:04.732Z,15012.00
2018-06-28T11:20:04.680Z,15856.00
2018-06-28T11:21:04.655Z,16532.00
2018-06-28T11:22:04.637Z,17312.00
2018-06-28T11:23:04.622Z,18016.00
2018-06-28T11:24:04.652Z,18528.00
2018-06-28T11:25:05.573Z,18304.00
2018-06-28T11:26:04.569Z,18368.00
2018-06-28T11:27:04.596Z,18464.00
2018-06-28T11:28:04.539Z,18816.00
2018-06-28T11:29:04.515Z,18752.00
2018-06-28T11:30:05.498Z,18528.00
2018-06-28T11:31:04.481Z,18176.00
2018-06-28T11:32:04.500Z,18496.00
2018-06-28T11:33:04.490Z,18912.00
2018-06-28T11:34:04.462Z,19168.00
2018-06-28T11:35:04.995Z,19584.00
2018-06-28T11:36:04.391Z,18976.00
2018-06-28T11:37:04.378Z,19040.00
2018-06-28T11:38:04.414Z,19072.00
2018-06-28T11:39:04.354Z,19200.00
2018-06-28T11:40:04.362Z,18848.00
2018-06-28T11:41:04.994Z,17216.00
2018-06-28T11:42:04.292Z,15780.00
2018-06-28T11:43:04.322Z,15276.00
2018-06-28T11:44:04.256Z,15508.00
2018-06-28T11:45:05.039Z,16092.00
2018-06-28T11:46:04.239Z,16544.00
2018-06-28T11:47:04.213Z,16204.00
2018-06-28T11:48:04.234Z,16464.00
2018-06-28T11:49:05.000Z,17344.00
2018-06-28T11:50:04.152Z,17472.00
2018-06-28T11:51:04.137Z,17824.00
2018-06-28T11:52:04.120Z,17728.00
2018-06-28T11:53:04.146Z,16960.00
2018-06-28T11:54:04.083Z,17088.00
2018-06-28T11:55:04.070Z,17184.00
2018-06-28T11:56:04.051Z,16640.00
2018-06-28T11:57:04.040Z,16048.00
2018-06-28T11:58:04.061Z,15900.00
2018-06-28T11:59:04.000Z,15764.00
2018-06-28T12:00:03.994Z,15384.00
2018-06-28T12:01:03.967Z,15352.00
2018-06-28T12:02:03.948Z,15300.00
2018-06-28T12:03:03.973Z,15276.00
2018-06-28T12:04:03.918Z,15416.00
2018-06-28T12:05:03.898Z,15380.00
2018-06-28T12:06:03.880Z,16072.00
2018-06-28T12:07:03.866Z,16544.00
2018-06-28T12:08:03.890Z,16640.00
2018-06-28T12:09:03.830Z,15656.00
2018-06-28T12:10:03.817Z,15800.00
2018-06-28T12:11:03.793Z,14880.00
2018-06-28T12:12:03.778Z,12976.00
2018-06-28T12:13:03.804Z,12052.00
2018-06-28T12:14:03.752Z,11560.00